sensor_id;sensor_type;location;lat;lon;timestamp;pressure;altitude;pressure_sealevel;temperature;humidity
54308;BME280;40208;39.778;2.710;2023-05-17T00:02:11;101202.00;;;18.53;94.04
54308;BME280;40208;39.778;2.710;2023-05-17T00:04:59;101195.75;;;18.52;94.41
54308;BME280;40208;39.778;2.710;2023-05-17T00:07:48;101195.97;;;18.62;94.00
54308;BME280;40208;39.778;2.710;2023-05-17T00:14:19;101189.06;;;18.71;93.91
54308;BME280;40208;39.778;2.710;2023-05-17T00:17:06;101189.50;;;18.64;93.00
54308;BME280;40208;39.778;2.710;2023-05-17T00:19:51;101189.28;;;18.68;89.92
54308;BME280;40208;39.778;2.710;2023-05-17T00:22:36;101195.53;;;18.68;90.81
54308;BME280;40208;39.778;2.710;2023-05-17T00:25:26;101199.81;;;18.58;91.36
54308;BME280;40208;39.778;2.710;2023-05-17T00:28:14;101188.22;;;18.57;90.25
54308;BME280;40208;39.778;2.710;2023-05-17T00:30:59;101183.63;;;18.47;90.27
54308;BME280;40208;39.778;2.710;2023-05-17T00:33:56;101185.91;;;18.40;91.74
54308;BME280;40208;39.778;2.710;2023-05-17T00:36:50;101190.84;;;18.46;91.09
54308;BME280;40208;39.778;2.710;2023-05-17T00:39:38;101188.47;;;18.54;87.21
54308;BME280;40208;39.778;2.710;2023-05-17T00:42:29;101182.44;;;18.51;87.22
54308;BME280;40208;39.778;2.710;2023-05-17T00:45:22;101188.59;;;18.40;88.06
54308;BME280;40208;39.778;2.710;2023-05-17T00:48:14;101192.34;;;18.37;87.39
54308;BME280;40208;39.778;2.710;2023-05-17T00:51:01;101193.31;;;18.49;85.27
54308;BME280;40208;39.778;2.710;2023-05-17T00:53:48;101190.38;;;18.52;84.54
54308;BME280;40208;39.778;2.710;2023-05-17T00:56:35;101182.56;;;18.49;83.56
54308;BME280;40208;39.778;2.710;2023-05-17T00:59:19;101178.13;;;18.48;82.47
54308;BME280;40208;39.778;2.710;2023-05-17T01:02:09;101179.53;;;18.41;82.60
54308;BME280;40208;39.778;2.710;2023-05-17T01:04:54;101189.00;;;18.34;81.82
54308;BME280;40208;39.778;2.710;2023-05-17T01:08:14;101179.88;;;18.36;82.51
54308;BME280;40208;39.778;2.710;2023-05-17T01:23:34;101152.81;;;18.27;80.17
54308;BME280;40208;39.778;2.710;2023-05-17T01:26:38;101163.13;;;18.33;80.48
54308;BME280;40208;39.778;2.710;2023-05-17T01:29:27;101170.34;;;18.32;78.13
54308;BME280;40208;39.778;2.710;2023-05-17T01:32:16;101159.25;;;18.24;80.57
54308;BME280;40208;39.778;2.710;2023-05-17T01:35:07;101161.53;;;18.30;79.34
54308;BME280;40208;39.778;2.710;2023-05-17T01:38:21;101158.09;;;18.15;79.94
54308;BME280;40208;39.778;2.710;2023-05-17T01:41:13;101161.44;;;18.06;81.10
54308;BME280;40208;39.778;2.710;2023-05-17T01:44:08;101162.53;;;18.04;80.68
54308;BME280;40208;39.778;2.710;2023-05-17T01:47:08;101151.44;;;18.08;81.15
54308;BME280;40208;39.778;2.710;2023-05-17T01:50:03;101149.38;;;18.12;81.21
54308;BME280;40208;39.778;2.710;2023-05-17T01:52:52;101151.31;;;18.10;79.96
54308;BME280;40208;39.778;2.710;2023-05-17T01:55:48;101149.50;;;18.10;79.57
54308;BME280;40208;39.778;2.710;2023-05-17T01:58:44;101150.16;;;18.14;80.48
54308;BME280;40208;39.778;2.710;2023-05-17T02:01:54;101148.97;;;18.05;80.28
54308;BME280;40208;39.778;2.710;2023-05-17T02:04:46;101151.56;;;17.94;80.07
54308;BME280;40208;39.778;2.710;2023-05-17T02:10:48;101144.56;;;18.04;80.81
54308;BME280;40208;39.778;2.710;2023-05-17T02:13:35;101145.84;;;17.98;81.25
54308;BME280;40208;39.778;2.710;2023-05-17T02:19:32;101136.06;;;18.10;80.62
54308;BME280;40208;39.778;2.710;2023-05-17T02:22:27;101137.16;;;17.95;80.87
54308;BME280;40208;39.778;2.710;2023-05-17T02:25:16;101137.47;;;17.90;81.33
54308;BME280;40208;39.778;2.710;2023-05-17T02:28:03;101143.84;;;17.89;80.41
54308;BME280;40208;39.778;2.710;2023-05-17T02:30:52;101145.41;;;18.05;80.90
54308;BME280;40208;39.778;2.710;2023-05-17T02:36:52;101135.53;;;18.05;81.44
54308;BME280;40208;39.778;2.710;2023-05-17T02:39:47;101135.53;;;18.05;81.74
54308;BME280;40208;39.778;2.710;2023-05-17T02:42:45;101138.53;;;18.00;82.02
54308;BME280;40208;39.778;2.710;2023-05-17T02:45:36;101144.03;;;17.86;82.74
54308;BME280;40208;39.778;2.710;2023-05-17T02:48:33;101142.41;;;17.84;83.13
54308;BME280;40208;39.778;2.710;2023-05-17T02:51:19;101134.13;;;17.87;82.97
54308;BME280;40208;39.778;2.710;2023-05-17T02:54:12;101144.34;;;18.07;82.54
54308;BME280;40208;39.778;2.710;2023-05-17T02:57:01;101142.63;;;18.06;82.85
54308;BME280;40208;39.778;2.710;2023-05-17T02:59:56;101148.44;;;18.00;83.08
54308;BME280;40208;39.778;2.710;2023-05-17T03:02:43;101142.63;;;18.06;83.85
54308;BME280;40208;39.778;2.710;2023-05-17T03:05:52;101140.38;;;18.00;83.85
54308;BME280;40208;39.778;2.710;2023-05-17T03:08:43;101141.88;;;17.91;85.17
54308;BME280;40208;39.778;2.710;2023-05-17T03:11:30;101146.28;;;17.92;85.10
54308;BME280;40208;39.778;2.710;2023-05-17T03:14:20;101137.81;;;17.86;84.77
54308;BME280;40208;39.778;2.710;2023-05-17T03:17:09;101137.56;;;17.89;85.55
54308;BME280;40208;39.778;2.710;2023-05-17T03:23:08;101143.06;;;18.00;85.30
54308;BME280;40208;39.778;2.710;2023-05-17T03:26:07;101137.56;;;17.89;85.14
54308;BME280;40208;39.778;2.710;2023-05-17T03:29:00;101049.63;;;17.28;85.89
54308;BME280;40208;39.778;2.710;2023-05-17T03:31:44;101140.59;;;17.84;85.43
54308;BME280;40208;39.778;2.710;2023-05-17T03:34:31;101142.53;;;17.82;85.85
54308;BME280;40208;39.778;2.710;2023-05-17T03:37:47;101144.16;;;17.85;86.03
54308;BME280;40208;39.778;2.710;2023-05-17T03:40:31;101148.34;;;18.01;85.16
54308;BME280;40208;39.778;2.710;2023-05-17T03:43:20;101148.53;;;17.86;85.98
54308;BME280;40208;39.778;2.710;2023-05-17T03:46:05;101140.25;;;17.89;86.17
54308;BME280;40208;39.778;2.710;2023-05-17T03:48:52;101147.69;;;17.85;85.88
54308;BME280;40208;39.778;2.710;2023-05-17T03:51:43;101145.09;;;17.84;85.87
54308;BME280;40208;39.778;2.710;2023-05-17T03:54:28;101146.25;;;17.79;84.98
54308;BME280;40208;39.778;2.710;2023-05-17T03:57:17;101136.47;;;17.78;84.75
54308;BME280;40208;39.778;2.710;2023-05-17T04:00:08;101137.19;;;17.82;85.58
54308;BME280;40208;39.778;2.710;2023-05-17T04:02:55;101138.19;;;17.79;84.39
54308;BME280;40208;39.778;2.710;2023-05-17T04:06:09;101134.66;;;17.79;84.50
54308;BME280;40208;39.778;2.710;2023-05-17T04:09:02;101132.19;;;17.76;84.43
54308;BME280;40208;39.778;2.710;2023-05-17T04:11:54;101129.50;;;17.76;85.22
54308;BME280;40208;39.778;2.710;2023-05-17T04:14:43;101134.22;;;17.72;85.49
54308;BME280;40208;39.778;2.710;2023-05-17T04:17:28;101131.44;;;17.74;86.72
54308;BME280;40208;39.778;2.710;2023-05-17T04:20:15;101133.25;;;17.73;87.49
54308;BME280;40208;39.778;2.710;2023-05-17T04:23:00;101133.25;;;17.73;87.86
54308;BME280;40208;39.778;2.710;2023-05-17T04:25:53;101138.63;;;17.73;87.95
54308;BME280;40208;39.778;2.710;2023-05-17T04:28:40;101144.63;;;17.77;86.90
54308;BME280;40208;39.778;2.710;2023-05-17T04:31:29;101146.47;;;17.76;87.07
54308;BME280;40208;39.778;2.710;2023-05-17T04:34:24;101154.66;;;17.75;85.63
54308;BME280;40208;39.778;2.710;2023-05-17T04:37:09;101152.81;;;17.75;84.69
54308;BME280;40208;39.778;2.710;2023-05-17T04:39:56;101160.56;;;17.80;84.88
54308;BME280;40208;39.778;2.710;2023-05-17T04:42:46;101156.91;;;17.81;84.23
54308;BME280;40208;39.778;2.710;2023-05-17T04:45:31;101160.66;;;17.78;84.13
54308;BME280;40208;39.778;2.710;2023-05-17T04:48:16;101166.81;;;17.80;83.77
54308;BME280;40208;39.778;2.710;2023-05-17T04:51:03;101170.41;;;17.79;83.93
54308;BME280;40208;39.778;2.710;2023-05-17T04:53:50;101178.31;;;17.83;84.39
54308;BME280;40208;39.778;2.710;2023-05-17T04:56:36;101176.78;;;17.91;84.04
54308;BME280;40208;39.778;2.710;2023-05-17T04:59:27;101193.09;;;17.75;83.99
54308;BME280;40208;39.778;2.710;2023-05-17T05:02:16;101188.25;;;17.68;84.96
54308;BME280;40208;39.778;2.710;2023-05-17T05:05:01;101190.16;;;17.66;86.34
54308;BME280;40208;39.778;2.710;2023-05-17T05:07:52;101193.03;;;17.63;86.59
54308;BME280;40208;39.778;2.710;2023-05-17T05:10:37;101206.69;;;17.59;89.13
54308;BME280;40208;39.778;2.710;2023-05-17T05:13:21;101214.41;;;17.51;91.33
54308;BME280;40208;39.778;2.710;2023-05-17T05:16:08;101220.63;;;17.52;93.52
54308;BME280;40208;39.778;2.710;2023-05-17T05:18:57;101226.59;;;17.43;96.40
54308;BME280;40208;39.778;2.710;2023-05-17T05:21:44;101227.38;;;17.45;96.88
54308;BME280;40208;39.778;2.710;2023-05-17T05:24:59;101231.00;;;17.44;97.57
54308;BME280;40208;39.778;2.710;2023-05-17T05:27:50;101229.69;;;17.36;100.00
54308;BME280;40208;39.778;2.710;2023-05-17T05:30:37;101227.88;;;17.37;100.00
54308;BME280;40208;39.778;2.710;2023-05-17T05:33:26;101228.53;;;17.41;100.00
54308;BME280;40208;39.778;2.710;2023-05-17T05:36:16;101225.00;;;17.40;100.00
54308;BME280;40208;39.778;2.710;2023-05-17T05:39:03;101239.06;;;17.44;100.00
54308;BME280;40208;39.778;2.710;2023-05-17T05:41:50;101239.56;;;17.36;100.00
54308;BME280;40208;39.778;2.710;2023-05-17T05:44:38;101248.94;;;17.43;100.00
54308;BME280;40208;39.778;2.710;2023-05-17T05:47:23;101251.91;;;17.38;100.00
54308;BME280;40208;39.778;2.710;2023-05-17T05:50:08;101250.09;;;17.39;100.00
54308;BME280;40208;39.778;2.710;2023-05-17T05:52:57;101250.00;;;17.41;100.00
54308;BME280;40208;39.778;2.710;2023-05-17T05:55:44;101255.91;;;17.46;100.00
54308;BME280;40208;39.778;2.710;2023-05-17T05:58:30;101258.19;;;17.52;100.00
54308;BME280;40208;39.778;2.710;2023-05-17T06:01:20;101258.84;;;17.55;100.00
54308;BME280;40208;39.778;2.710;2023-05-17T06:04:11;101262.97;;;17.61;100.00
54308;BME280;40208;39.778;2.710;2023-05-17T06:07:02;101260.16;;;17.63;100.00
54308;BME280;40208;39.778;2.710;2023-05-17T06:09:49;101269.81;;;17.65;100.00
54308;BME280;40208;39.778;2.710;2023-05-17T06:12:36;101276.72;;;17.69;100.00
54308;BME280;40208;39.778;2.710;2023-05-17T06:15:27;101280.16;;;17.71;100.00
54308;BME280;40208;39.778;2.710;2023-05-17T06:18:17;101279.94;;;17.74;100.00
54308;BME280;40208;39.778;2.710;2023-05-17T06:21:02;101271.78;;;17.76;100.00
54308;BME280;40208;39.778;2.710;2023-05-17T06:23:49;101271.69;;;17.77;100.00
54308;BME280;40208;39.778;2.710;2023-05-17T06:26:36;101276.94;;;17.79;100.00
54308;BME280;40208;39.778;2.710;2023-05-17T06:29:26;101274.19;;;17.80;100.00
54308;BME280;40208;39.778;2.710;2023-05-17T06:32:13;101280.44;;;17.81;100.00
54308;BME280;40208;39.778;2.710;2023-05-17T06:34:59;101279.34;;;17.84;100.00
54308;BME280;40208;39.778;2.710;2023-05-17T06:37:44;101281.09;;;17.85;100.00
54308;BME280;40208;39.778;2.710;2023-05-17T06:40:29;101278.19;;;17.88;100.00
54308;BME280;40208;39.778;2.710;2023-05-17T06:43:20;101283.34;;;17.91;100.00
54308;BME280;40208;39.778;2.710;2023-05-17T06:46:11;101278.72;;;17.93;100.00
54308;BME280;40208;39.778;2.710;2023-05-17T06:48:56;101273.16;;;17.96;100.00
54308;BME280;40208;39.778;2.710;2023-05-17T06:51:43;101276.59;;;17.98;100.00
54308;BME280;40208;39.778;2.710;2023-05-17T06:54:30;101283.47;;;18.02;100.00
54308;BME280;40208;39.778;2.710;2023-05-17T06:57:15;101273.38;;;18.06;100.00
54308;BME280;40208;39.778;2.710;2023-05-17T07:00:02;101274.78;;;18.11;100.00
54308;BME280;40208;39.778;2.710;2023-05-17T07:02:49;101270.94;;;18.15;100.00
54308;BME280;40208;39.778;2.710;2023-05-17T07:05:44;101273.41;;;18.18;100.00
54308;BME280;40208;39.778;2.710;2023-05-17T07:08:29;101277.28;;;18.27;100.00
54308;BME280;40208;39.778;2.710;2023-05-17T07:11:14;101277.69;;;18.34;100.00
54308;BME280;40208;39.778;2.710;2023-05-17T07:14:01;101288.34;;;18.35;100.00
54308;BME280;40208;39.778;2.710;2023-05-17T07:16:47;101281.81;;;18.39;100.00
54308;BME280;40208;39.778;2.710;2023-05-17T07:19:34;101291.47;;;18.42;100.00
54308;BME280;40208;39.778;2.710;2023-05-17T07:22:21;101290.31;;;18.46;100.00
54308;BME280;40208;39.778;2.710;2023-05-17T07:28:27;101277.06;;;18.56;100.00
54308;BME280;40208;39.778;2.710;2023-05-17T07:31:19;101289.19;;;18.61;100.00
54308;BME280;40208;39.778;2.710;2023-05-17T07:34:05;101297.56;;;18.70;100.00
54308;BME280;40208;39.778;2.710;2023-05-17T07:36:54;101296.38;;;18.74;100.00
54308;BME280;40208;39.778;2.710;2023-05-17T07:39:43;101286.31;;;18.77;100.00
54308;BME280;40208;39.778;2.710;2023-05-17T07:42:29;101287.78;;;18.81;100.00
54308;BME280;40208;39.778;2.710;2023-05-17T07:45:14;101291.03;;;18.87;100.00
54308;BME280;40208;39.778;2.710;2023-05-17T07:47:59;101280.91;;;18.90;100.00
54308;BME280;40208;39.778;2.710;2023-05-17T07:50:46;101290.34;;;18.96;100.00
54308;BME280;40208;39.778;2.710;2023-05-17T07:53:35;101292.72;;;19.00;100.00
54308;BME280;40208;39.778;2.710;2023-05-17T07:56:19;101289.47;;;19.08;100.00
54308;BME280;40208;39.778;2.710;2023-05-17T07:59:04;101282.03;;;19.12;100.00
54308;BME280;40208;39.778;2.710;2023-05-17T08:01:53;101285.25;;;19.17;100.00
54308;BME280;40208;39.778;2.710;2023-05-17T08:04:40;101281.25;;;19.22;100.00
54308;BME280;40208;39.778;2.710;2023-05-17T08:07:25;101278.34;;;19.25;100.00
54308;BME280;40208;39.778;2.710;2023-05-17T08:10:14;101274.56;;;19.28;100.00
54308;BME280;40208;39.778;2.710;2023-05-17T08:13:00;101271.53;;;19.33;100.00
54308;BME280;40208;39.778;2.710;2023-05-17T08:15:47;101273.69;;;19.27;100.00
54308;BME280;40208;39.778;2.710;2023-05-17T08:18:35;101199.28;;;18.78;100.00
54308;BME280;40208;39.778;2.710;2023-05-17T08:21:26;101273.22;;;19.34;100.00
54308;BME280;40208;39.778;2.710;2023-05-17T08:24:13;101263.22;;;19.36;100.00
54308;BME280;40208;39.778;2.710;2023-05-17T08:26:58;101259.44;;;19.38;100.00
54308;BME280;40208;39.778;2.710;2023-05-17T08:29:49;101268.16;;;19.42;100.00
54308;BME280;40208;39.778;2.710;2023-05-17T08:32:39;101256.78;;;19.49;100.00
54308;BME280;40208;39.778;2.710;2023-05-17T08:35:30;101249.22;;;19.55;100.00
54308;BME280;40208;39.778;2.710;2023-05-17T08:38:17;101253.91;;;19.64;100.00
54308;BME280;40208;39.778;2.710;2023-05-17T08:41:09;101243.69;;;19.69;100.00
54308;BME280;40208;39.778;2.710;2023-05-17T08:43:56;101243.78;;;19.67;100.00
54308;BME280;40208;39.778;2.710;2023-05-17T08:46:43;101247.63;;;19.76;100.00
54308;BME280;40208;39.778;2.710;2023-05-17T08:49:38;101246.31;;;19.82;100.00
54308;BME280;40208;39.778;2.710;2023-05-17T08:52:24;101235.94;;;19.88;100.00
54308;BME280;40208;39.778;2.710;2023-05-17T08:55:10;101237.41;;;19.92;100.00
54308;BME280;40208;39.778;2.710;2023-05-17T08:58:00;101232.84;;;19.93;100.00
54308;BME280;40208;39.778;2.710;2023-05-17T09:00:46;101242.56;;;19.96;100.00
54308;BME280;40208;39.778;2.710;2023-05-17T09:03:39;101238.91;;;20.08;100.00
54308;BME280;40208;39.778;2.710;2023-05-17T09:06:30;101244.53;;;20.16;100.00
54308;BME280;40208;39.778;2.710;2023-05-17T09:09:22;101245.19;;;20.20;100.00
54308;BME280;40208;39.778;2.710;2023-05-17T09:12:11;101251.16;;;20.23;100.00
54308;BME280;40208;39.778;2.710;2023-05-17T09:15:12;101249.50;;;20.33;100.00
54308;BME280;40208;39.778;2.710;2023-05-17T09:18:00;101250.84;;;20.39;100.00
54308;BME280;40208;39.778;2.710;2023-05-17T09:20:50;101253.16;;;20.44;100.00
54308;BME280;40208;39.778;2.710;2023-05-17T09:23:37;101248.38;;;20.47;100.00
54308;BME280;40208;39.778;2.710;2023-05-17T09:26:23;101246.19;;;20.52;100.00
54308;BME280;40208;39.778;2.710;2023-05-17T09:29:13;101246.56;;;20.59;100.00
54308;BME280;40208;39.778;2.710;2023-05-17T09:32:14;101255.88;;;20.66;100.00
54308;BME280;40208;39.778;2.710;2023-05-17T09:35:09;101257.63;;;20.67;100.00
54308;BME280;40208;39.778;2.710;2023-05-17T09:37:56;101264.09;;;20.76;100.00
54308;BME280;40208;39.778;2.710;2023-05-17T09:40:48;101260.06;;;20.70;100.00
54308;BME280;40208;39.778;2.710;2023-05-17T09:43:33;101255.28;;;20.74;100.00
54308;BME280;40208;39.778;2.710;2023-05-17T09:46:19;101253.31;;;20.76;100.00
54308;BME280;40208;39.778;2.710;2023-05-17T09:49:11;101262.88;;;20.80;100.00
54308;BME280;40208;39.778;2.710;2023-05-17T09:52:04;101260.66;;;20.85;100.00
54308;BME280;40208;39.778;2.710;2023-05-17T09:54:54;101261.28;;;20.89;100.00
54308;BME280;40208;39.778;2.710;2023-05-17T09:57:43;101262.03;;;20.91;100.00
54308;BME280;40208;39.778;2.710;2023-05-17T10:00:30;101260.66;;;20.96;100.00
54308;BME280;40208;39.778;2.710;2023-05-17T10:03:19;101248.25;;;21.05;100.00
54308;BME280;40208;39.778;2.710;2023-05-17T10:06:10;101255.09;;;21.09;100.00
54308;BME280;40208;39.778;2.710;2023-05-17T10:08:59;101256.09;;;21.08;100.00
54308;BME280;40208;39.778;2.710;2023-05-17T10:12:14;101262.97;;;21.12;100.00
54308;BME280;40208;39.778;2.710;2023-05-17T10:15:02;101263.94;;;21.11;100.00
54308;BME280;40208;39.778;2.710;2023-05-17T10:17:51;101258.78;;;21.08;100.00
54308;BME280;40208;39.778;2.710;2023-05-17T10:21:01;101267.09;;;21.16;100.00
54308;BME280;40208;39.778;2.710;2023-05-17T10:23:46;101266.69;;;21.32;100.00
54308;BME280;40208;39.778;2.710;2023-05-17T10:26:35;101275.28;;;21.37;100.00
54308;BME280;40208;39.778;2.710;2023-05-17T10:33:06;101278.25;;;21.34;100.00
54308;BME280;40208;39.778;2.710;2023-05-17T10:35:52;101278.34;;;21.33;100.00
54308;BME280;40208;39.778;2.710;2023-05-17T10:38:45;101269.03;;;21.37;100.00
54308;BME280;40208;39.778;2.710;2023-05-17T10:41:34;101269.28;;;21.34;100.00
54308;BME280;40208;39.778;2.710;2023-05-17T10:44:24;101269.28;;;21.34;100.00
54308;BME280;40208;39.778;2.710;2023-05-17T10:47:12;101276.66;;;21.32;100.00
54308;BME280;40208;39.778;2.710;2023-05-17T10:50:19;101265.72;;;21.33;100.00
54308;BME280;40208;39.778;2.710;2023-05-17T10:53:14;101276.38;;;21.35;100.00
54308;BME280;40208;39.778;2.710;2023-05-17T10:56:01;101265.13;;;21.30;100.00
54308;BME280;40208;39.778;2.710;2023-05-17T10:58:46;101276.66;;;21.32;100.00
54308;BME280;40208;39.778;2.710;2023-05-17T11:04:38;101276.66;;;21.43;100.00
54308;BME280;40208;39.778;2.710;2023-05-17T11:07:34;101273.91;;;21.54;97.21
54308;BME280;40208;39.778;2.710;2023-05-17T11:10:26;101262.78;;;21.48;99.61
54308;BME280;40208;39.778;2.710;2023-05-17T11:13:24;101276.50;;;21.45;99.07
54308;BME280;40208;39.778;2.710;2023-05-17T11:16:15;101266.09;;;21.40;99.63
54308;BME280;40208;39.778;2.710;2023-05-17T11:19:09;101264.16;;;21.31;100.00
54308;BME280;40208;39.778;2.710;2023-05-17T11:22:26;101262.31;;;21.20;99.59
54308;BME280;40208;39.778;2.710;2023-05-17T11:25:17;101272.38;;;21.18;100.00
54308;BME280;40208;39.778;2.710;2023-05-17T11:28:27;101263.91;;;21.23;97.79
54308;BME280;40208;39.778;2.710;2023-05-17T11:31:14;101266.13;;;21.29;100.00
54308;BME280;40208;39.778;2.710;2023-05-17T11:34:07;101268.56;;;21.32;99.83
54308;BME280;40208;39.778;2.710;2023-05-17T11:36:56;101268.56;;;21.32;94.86
54308;BME280;40208;39.778;2.710;2023-05-17T11:39:59;101268.66;;;21.30;96.04
54308;BME280;40208;39.778;2.710;2023-05-17T11:46:03;101279.25;;;21.22;98.21
54308;BME280;40208;39.778;2.710;2023-05-17T11:48:53;101274.59;;;21.24;98.39
54308;BME280;40208;39.778;2.710;2023-05-17T11:51:45;101269.56;;;21.20;97.97
54308;BME280;40208;39.778;2.710;2023-05-17T11:54:32;101266.59;;;21.23;98.79
54308;BME280;40208;39.778;2.710;2023-05-17T11:57:29;101269.03;;;21.26;98.72
54308;BME280;40208;39.778;2.710;2023-05-17T12:07:17;101252.16;;;21.12;100.00
54308;BME280;40208;39.778;2.710;2023-05-17T12:10:09;101260.38;;;21.11;100.00
54308;BME280;40208;39.778;2.710;2023-05-17T12:16:16;101248.00;;;21.08;100.00
54308;BME280;40208;39.778;2.710;2023-05-17T12:19:04;101245.03;;;21.11;100.00
54308;BME280;40208;39.778;2.710;2023-05-17T12:21:50;101242.00;;;21.05;100.00
54308;BME280;40208;39.778;2.710;2023-05-17T12:24:39;101246.78;;;21.01;100.00
54308;BME280;40208;39.778;2.710;2023-05-17T12:27:28;101241.38;;;21.01;100.00
54308;BME280;40208;39.778;2.710;2023-05-17T12:30:21;101242.84;;;21.05;100.00
54308;BME280;40208;39.778;2.710;2023-05-17T12:33:12;101253.66;;;21.05;100.00
54308;BME280;40208;39.778;2.710;2023-05-17T12:36:01;101249.22;;;21.04;100.00
54308;BME280;40208;39.778;2.710;2023-05-17T12:38:51;101242.38;;;21.00;100.00
54308;BME280;40208;39.778;2.710;2023-05-17T12:41:44;101249.47;;;21.01;100.00
54308;BME280;40208;39.778;2.710;2023-05-17T12:44:36;101250.34;;;21.02;100.00
54308;BME280;40208;39.778;2.710;2023-05-17T12:47:24;101253.66;;;21.05;100.00
54308;BME280;40208;39.778;2.710;2023-05-17T12:53:33;101259.06;;;21.05;100.00
54308;BME280;40208;39.778;2.710;2023-05-17T12:56:50;101254.97;;;21.11;100.00
54308;BME280;40208;39.778;2.710;2023-05-17T13:02:56;101258.53;;;21.11;100.00
54308;BME280;40208;39.778;2.710;2023-05-17T13:05:56;101259.41;;;21.12;100.00
54308;BME280;40208;39.778;2.710;2023-05-17T13:08:42;101258.78;;;21.08;100.00
54308;BME280;40208;39.778;2.710;2023-05-17T13:11:29;101258.53;;;21.11;100.00
54308;BME280;40208;39.778;2.710;2023-05-17T13:17:25;101261.97;;;21.13;100.00
54308;BME280;40208;39.778;2.710;2023-05-17T13:20:13;101254.72;;;21.14;100.00
54308;BME280;40208;39.778;2.710;2023-05-17T13:23:02;101247.50;;;21.14;100.00
54308;BME280;40208;39.778;2.710;2023-05-17T13:26:21;101249.97;;;21.06;100.00
54308;BME280;40208;39.778;2.710;2023-05-17T13:29:08;101244.81;;;21.03;100.00
54308;BME280;40208;39.778;2.710;2023-05-17T13:31:55;101253.28;;;20.99;100.00
54308;BME280;40208;39.778;2.710;2023-05-17T13:34:45;101261.28;;;21.00;100.00
54308;BME280;40208;39.778;2.710;2023-05-17T13:38:03;101249.00;;;20.96;100.00
54308;BME280;40208;39.778;2.710;2023-05-17T13:40:50;101244.47;;;20.96;100.00
54308;BME280;40208;39.778;2.710;2023-05-17T13:44:03;101250.22;;;20.92;100.00
54308;BME280;40208;39.778;2.710;2023-05-17T13:46:52;101234.56;;;20.86;100.00
54308;BME280;40208;39.778;2.710;2023-05-17T13:49:47;101245.34;;;20.86;100.00
54308;BME280;40208;39.778;2.710;2023-05-17T13:52:34;101242.03;;;20.82;100.00
54308;BME280;40208;39.778;2.710;2023-05-17T13:55:24;101240.44;;;20.80;100.00
54308;BME280;40208;39.778;2.710;2023-05-17T13:58:11;101241.66;;;20.75;100.00
54308;BME280;40208;39.778;2.710;2023-05-17T14:01:02;101239.97;;;20.74;100.00
54308;BME280;40208;39.778;2.710;2023-05-17T14:03:51;101243.63;;;20.73;100.00
54308;BME280;40208;39.778;2.710;2023-05-17T14:06:40;101237.47;;;20.71;100.00
54308;BME280;40208;39.778;2.710;2023-05-17T14:09:27;101238.13;;;20.75;100.00
54308;BME280;40208;39.778;2.710;2023-05-17T14:12:37;101242.66;;;20.74;100.00
54308;BME280;40208;39.778;2.710;2023-05-17T14:15:22;101240.31;;;20.70;100.00
54308;BME280;40208;39.778;2.710;2023-05-17T14:18:08;101237.75;;;20.68;100.00
54308;BME280;40208;39.778;2.710;2023-05-17T14:21:03;101230.66;;;20.67;100.00
54308;BME280;40208;39.778;2.710;2023-05-17T14:23:47;101235.03;;;20.68;100.00
54308;BME280;40208;39.778;2.710;2023-05-17T14:26:38;101236.03;;;20.67;100.00
54308;BME280;40208;39.778;2.710;2023-05-17T14:29:31;101228.53;;;20.71;100.00
54308;BME280;40208;39.778;2.710;2023-05-17T14:32:40;101223.28;;;20.69;100.00
54308;BME280;40208;39.778;2.710;2023-05-17T14:35:31;101223.50;;;20.66;100.00
54308;BME280;40208;39.778;2.710;2023-05-17T14:38:26;101221.69;;;20.67;100.00
54308;BME280;40208;39.778;2.710;2023-05-17T14:41:15;101212.50;;;20.69;100.00
54308;BME280;40208;39.778;2.710;2023-05-17T14:44:04;101224.25;;;20.68;100.00
54308;BME280;40208;39.778;2.710;2023-05-17T14:47:00;101214.31;;;20.69;100.00
54308;BME280;40208;39.778;2.710;2023-05-17T14:49:49;101210.50;;;20.71;100.00
54308;BME280;40208;39.778;2.710;2023-05-17T14:52:34;101216.91;;;20.70;100.00
54308;BME280;40208;39.778;2.710;2023-05-17T14:55:46;101217.63;;;20.72;100.00
54308;BME280;40208;39.778;2.710;2023-05-17T14:59:01;101222.91;;;20.74;100.00
54308;BME280;40208;39.778;2.710;2023-05-17T15:01:56;101214.19;;;20.70;100.00
54308;BME280;40208;39.778;2.710;2023-05-17T15:04:45;101215.06;;;20.71;100.00
54308;BME280;40208;39.778;2.710;2023-05-17T15:07:34;101213.09;;;20.73;100.00
54308;BME280;40208;39.778;2.710;2023-05-17T15:10:23;101206.72;;;20.74;100.00
54308;BME280;40208;39.778;2.710;2023-05-17T15:13:13;101213.94;;;20.73;100.00
54308;BME280;40208;39.778;2.710;2023-05-17T15:16:01;101210.03;;;20.78;100.00
54308;BME280;40208;39.778;2.710;2023-05-17T15:19:02;101221.06;;;20.74;100.00
54308;BME280;40208;39.778;2.710;2023-05-17T15:21:53;101215.91;;;20.71;100.00
54308;BME280;40208;39.778;2.710;2023-05-17T15:24:43;101215.78;;;20.73;100.00
54308;BME280;40208;39.778;2.710;2023-05-17T15:27:28;101213.72;;;20.77;100.00
54308;BME280;40208;39.778;2.710;2023-05-17T15:30:22;101218.22;;;20.76;100.00
54308;BME280;40208;39.778;2.710;2023-05-17T15:33:18;101220.94;;;20.76;100.00
54308;BME280;40208;39.778;2.710;2023-05-17T15:36:07;101216.41;;;20.77;100.00
54308;BME280;40208;39.778;2.710;2023-05-17T15:38:57;101218.50;;;20.73;100.00
54308;BME280;40208;39.778;2.710;2023-05-17T15:41:44;101212.25;;;20.72;100.00
54308;BME280;40208;39.778;2.710;2023-05-17T15:44:32;101213.94;;;20.73;100.00
54308;BME280;40208;39.778;2.710;2023-05-17T15:47:21;101224.72;;;20.73;100.00